sensor_id;sensor_type;location;lat;lon;timestamp;P1;durP1;ratioP1;P2;durP2;ratioP2
3036;SDS011;1528;52.550;13.408;2023-09-18T00:01:44;15.50;;;14.60;;
3036;SDS011;1528;52.550;13.408;2023-09-18T00:04:30;15.13;;;14.03;;
3036;SDS011;1528;52.550;13.408;2023-09-18T00:07:16;15.67;;;14.70;;
3036;SDS011;1528;52.550;13.408;2023-09-18T00:10:01;15.07;;;14.17;;
3036;SDS011;1528;52.550;13.408;2023-09-18T00:12:47;14.40;;;13.40;;
3036;SDS011;1528;52.550;13.408;2023-09-18T00:15:34;14.50;;;13.70;;
3036;SDS011;1528;52.550;13.408;2023-09-18T00:18:20;15.83;;;14.87;;
3036;SDS011;1528;52.550;13.408;2023-09-18T00:21:06;14.00;;;13.20;;
3036;SDS011;1528;52.550;13.408;2023-09-18T00:23:53;14.97;;;14.10;;
3036;SDS011;1528;52.550;13.408;2023-09-18T00:26:39;14.80;;;13.80;;
3036;SDS011;1528;52.550;13.408;2023-09-18T00:29:24;14.30;;;13.50;;
3036;SDS011;1528;52.550;13.408;2023-09-18T00:32:11;14.17;;;13.27;;
3036;SDS011;1528;52.550;13.408;2023-09-18T00:34:57;14.07;;;13.23;;
3036;SDS011;1528;52.550;13.408;2023-09-18T00:37:42;13.20;;;12.40;;
3036;SDS011;1528;52.550;13.408;2023-09-18T00:40:28;12.93;;;11.93;;
3036;SDS011;1528;52.550;13.408;2023-09-18T00:43:14;13.60;;;12.80;;
3036;SDS011;1528;52.550;13.408;2023-09-18T00:46:01;13.60;;;12.80;;
3036;SDS011;1528;52.550;13.408;2023-09-18T00:48:48;13.00;;;12.10;;
3036;SDS011;1528;52.550;13.408;2023-09-18T00:51:34;13.13;;;12.43;;
3036;SDS011;1528;52.550;13.408;2023-09-18T00:54:20;14.53;;;13.73;;
3036;SDS011;1528;52.550;13.408;2023-09-18T00:57:07;14.43;;;13.53;;
3036;SDS011;1528;52.550;13.408;2023-09-18T00:59:53;14.53;;;13.53;;
3036;SDS011;1528;52.550;13.408;2023-09-18T01:02:39;14.20;;;13.40;;
3036;SDS011;1528;52.550;13.408;2023-09-18T01:05:26;13.13;;;12.23;;
3036;SDS011;1528;52.550;13.408;2023-09-18T01:08:11;14.03;;;13.10;;
3036;SDS011;1528;52.550;13.408;2023-09-18T01:11:00;14.40;;;13.40;;
3036;SDS011;1528;52.550;13.408;2023-09-18T01:13:54;12.77;;;11.97;;
3036;SDS011;1528;52.550;13.408;2023-09-18T01:16:44;13.37;;;12.57;;
3036;SDS011;1528;52.550;13.408;2023-09-18T01:19:35;14.17;;;13.27;;
3036;SDS011;1528;52.550;13.408;2023-09-18T01:25:18;12.40;;;11.70;;
3036;SDS011;1528;52.550;13.408;2023-09-18T01:28:03;13.60;;;12.80;;
3036;SDS011;1528;52.550;13.408;2023-09-18T01:30:49;14.63;;;13.73;;
3036;SDS011;1528;52.550;13.408;2023-09-18T01:33:35;13.40;;;12.50;;
3036;SDS011;1528;52.550;13.408;2023-09-18T01:36:21;13.80;;;12.90;;
3036;SDS011;1528;52.550;13.408;2023-09-18T01:39:10;14.17;;;13.37;;
3036;SDS011;1528;52.550;13.408;2023-09-18T01:41:56;13.50;;;12.57;;
3036;SDS011;1528;52.550;13.408;2023-09-18T01:44:43;13.70;;;12.90;;
3036;SDS011;1528;52.550;13.408;2023-09-18T01:47:29;12.73;;;12.03;;
3036;SDS011;1528;52.550;13.408;2023-09-18T01:50:14;13.60;;;12.90;;
3036;SDS011;1528;52.550;13.408;2023-09-18T01:52:59;14.40;;;13.60;;
3036;SDS011;1528;52.550;13.408;2023-09-18T01:55:47;13.87;;;13.07;;
3036;SDS011;1528;52.550;13.408;2023-09-18T01:58:33;15.30;;;14.50;;
3036;SDS011;1528;52.550;13.408;2023-09-18T02:01:18;14.00;;;13.17;;
3036;SDS011;1528;52.550;13.408;2023-09-18T02:04:04;14.20;;;13.30;;
3036;SDS011;1528;52.550;13.408;2023-09-18T02:06:50;12.90;;;12.00;;
3036;SDS011;1528;52.550;13.408;2023-09-18T02:09:36;13.73;;;12.93;;
3036;SDS011;1528;52.550;13.408;2023-09-18T02:12:23;15.00;;;13.90;;
3036;SDS011;1528;52.550;13.408;2023-09-18T02:15:08;13.40;;;12.70;;
3036;SDS011;1528;52.550;13.408;2023-09-18T02:17:54;13.80;;;13.03;;
3036;SDS011;1528;52.550;13.408;2023-09-18T02:20:40;13.03;;;12.13;;
3036;SDS011;1528;52.550;13.408;2023-09-18T02:23:27;13.70;;;12.70;;
3036;SDS011;1528;52.550;13.408;2023-09-18T02:26:13;12.40;;;11.60;;
3036;SDS011;1528;52.550;13.408;2023-09-18T02:29:01;13.37;;;12.47;;
3036;SDS011;1528;52.550;13.408;2023-09-18T02:31:47;14.10;;;13.10;;
3036;SDS011;1528;52.550;13.408;2023-09-18T02:34:33;14.60;;;13.70;;
3036;SDS011;1528;52.550;13.408;2023-09-18T02:37:19;12.80;;;12.00;;
3036;SDS011;1528;52.550;13.408;2023-09-18T02:40:05;13.33;;;12.53;;
3036;SDS011;1528;52.550;13.408;2023-09-18T02:42:51;12.73;;;12.00;;
3036;SDS011;1528;52.550;13.408;2023-09-18T02:45:39;12.63;;;11.73;;
3036;SDS011;1528;52.550;13.408;2023-09-18T02:48:24;13.37;;;12.50;;
3036;SDS011;1528;52.550;13.408;2023-09-18T02:51:10;12.57;;;11.80;;
3036;SDS011;1528;52.550;13.408;2023-09-18T02:53:56;13.57;;;12.67;;
3036;SDS011;1528;52.550;13.408;2023-09-18T02:56:41;13.97;;;13.17;;
3036;SDS011;1528;52.550;13.408;2023-09-18T02:59:27;12.87;;;12.07;;
3036;SDS011;1528;52.550;13.408;2023-09-18T03:02:14;13.50;;;12.70;;
3036;SDS011;1528;52.550;13.408;2023-09-18T03:04:59;12.33;;;11.60;;
3036;SDS011;1528;52.550;13.408;2023-09-18T03:07:45;14.07;;;13.17;;
3036;SDS011;1528;52.550;13.408;2023-09-18T03:10:32;13.90;;;13.13;;
3036;SDS011;1528;52.550;13.408;2023-09-18T03:13:19;12.97;;;12.27;;
3036;SDS011;1528;52.550;13.408;2023-09-18T03:16:04;12.83;;;12.03;;
3036;SDS011;1528;52.550;13.408;2023-09-18T03:18:51;14.73;;;13.83;;
3036;SDS011;1528;52.550;13.408;2023-09-18T03:21:37;12.77;;;12.07;;
3036;SDS011;1528;52.550;13.408;2023-09-18T03:24:22;13.33;;;12.47;;
3036;SDS011;1528;52.550;13.408;2023-09-18T03:27:08;13.83;;;12.93;;
3036;SDS011;1528;52.550;13.408;2023-09-18T03:29:54;13.63;;;12.73;;
3036;SDS011;1528;52.550;13.408;2023-09-18T03:32:39;13.00;;;12.20;;
3036;SDS011;1528;52.550;13.408;2023-09-18T03:35:28;13.50;;;12.70;;
3036;SDS011;1528;52.550;13.408;2023-09-18T03:38:14;12.87;;;12.17;;
3036;SDS011;1528;52.550;13.408;2023-09-18T03:40:59;13.83;;;13.03;;
3036;SDS011;1528;52.550;13.408;2023-09-18T03:43:45;13.33;;;12.60;;
3036;SDS011;1528;52.550;13.408;2023-09-18T03:46:32;13.63;;;12.83;;
3036;SDS011;1528;52.550;13.408;2023-09-18T03:49:18;14.77;;;13.83;;
3036;SDS011;1528;52.550;13.408;2023-09-18T03:52:05;13.53;;;12.73;;
3036;SDS011;1528;52.550;13.408;2023-09-18T03:54:51;13.50;;;12.70;;
3036;SDS011;1528;52.550;13.408;2023-09-18T03:57:36;14.20;;;13.50;;
3036;SDS011;1528;52.550;13.408;2023-09-18T04:00:23;13.30;;;12.20;;
3036;SDS011;1528;52.550;13.408;2023-09-18T04:03:09;13.90;;;13.10;;
3036;SDS011;1528;52.550;13.408;2023-09-18T04:05:55;14.30;;;13.50;;
3036;SDS011;1528;52.550;13.408;2023-09-18T04:08:42;14.63;;;13.63;;
3036;SDS011;1528;52.550;13.408;2023-09-18T04:11:27;13.87;;;12.97;;
3036;SDS011;1528;52.550;13.408;2023-09-18T04:14:16;14.07;;;13.13;;
3036;SDS011;1528;52.550;13.408;2023-09-18T04:17:01;13.13;;;12.33;;
3036;SDS011;1528;52.550;13.408;2023-09-18T04:19:47;13.50;;;12.40;;
3036;SDS011;1528;52.550;13.408;2023-09-18T04:22:33;14.53;;;13.63;;
3036;SDS011;1528;52.550;13.408;2023-09-18T04:25:20;13.60;;;12.80;;
3036;SDS011;1528;52.550;13.408;2023-09-18T04:28:05;13.33;;;12.33;;
3036;SDS011;1528;52.550;13.408;2023-09-18T04:30:51;13.33;;;12.53;;
3036;SDS011;1528;52.550;13.408;2023-09-18T04:33:37;14.27;;;13.37;;
3036;SDS011;1528;52.550;13.408;2023-09-18T04:36:22;14.03;;;13.03;;
3036;SDS011;1528;52.550;13.408;2023-09-18T04:39:08;14.47;;;13.37;;
3036;SDS011;1528;52.550;13.408;2023-09-18T04:41:55;14.47;;;13.57;;
3036;SDS011;1528;52.550;13.408;2023-09-18T04:44:41;13.67;;;12.47;;
3036;SDS011;1528;52.550;13.408;2023-09-18T04:47:27;12.50;;;11.80;;
3036;SDS011;1528;52.550;13.408;2023-09-18T04:50:12;14.07;;;13.17;;
3036;SDS011;1528;52.550;13.408;2023-09-18T04:52:58;14.13;;;13.23;;
3036;SDS011;1528;52.550;13.408;2023-09-18T04:55:43;12.83;;;11.93;;
3036;SDS011;1528;52.550;13.408;2023-09-18T04:58:34;13.43;;;12.53;;
3036;SDS011;1528;52.550;13.408;2023-09-18T05:01:21;14.17;;;13.37;;
3036;SDS011;1528;52.550;13.408;2023-09-18T05:04:06;14.53;;;13.57;;
3036;SDS011;1528;52.550;13.408;2023-09-18T05:06:52;14.03;;;13.23;;
3036;SDS011;1528;52.550;13.408;2023-09-18T05:09:37;14.63;;;13.57;;
3036;SDS011;1528;52.550;13.408;2023-09-18T05:12:24;14.90;;;13.70;;
3036;SDS011;1528;52.550;13.408;2023-09-18T05:15:11;14.00;;;13.10;;
3036;SDS011;1528;52.550;13.408;2023-09-18T05:17:57;14.27;;;13.40;;
3036;SDS011;1528;52.550;13.408;2023-09-18T05:20:44;14.40;;;13.50;;
3036;SDS011;1528;52.550;13.408;2023-09-18T05:23:30;14.87;;;13.87;;
3036;SDS011;1528;52.550;13.408;2023-09-18T05:26:15;14.57;;;13.67;;
3036;SDS011;1528;52.550;13.408;2023-09-18T05:29:01;14.83;;;13.73;;
3036;SDS011;1528;52.550;13.408;2023-09-18T05:31:49;14.70;;;13.70;;
3036;SDS011;1528;52.550;13.408;2023-09-18T05:34:34;13.80;;;12.77;;
3036;SDS011;1528;52.550;13.408;2023-09-18T05:37:20;14.50;;;13.60;;
3036;SDS011;1528;52.550;13.408;2023-09-18T05:40:06;15.93;;;15.00;;
3036;SDS011;1528;52.550;13.408;2023-09-18T05:42:54;15.03;;;14.00;;
3036;SDS011;1528;52.550;13.408;2023-09-18T05:45:40;15.37;;;14.23;;
3036;SDS011;1528;52.550;13.408;2023-09-18T05:48:27;13.97;;;13.10;;
3036;SDS011;1528;52.550;13.408;2023-09-18T05:51:13;14.00;;;12.90;;
3036;SDS011;1528;52.550;13.408;2023-09-18T05:53:58;14.37;;;13.47;;
3036;SDS011;1528;52.550;13.408;2023-09-18T05:56:45;15.03;;;14.10;;
3036;SDS011;1528;52.550;13.408;2023-09-18T05:59:30;14.73;;;13.73;;
3036;SDS011;1528;52.550;13.408;2023-09-18T06:02:16;14.13;;;13.30;;
3036;SDS011;1528;52.550;13.408;2023-09-18T06:05:03;14.50;;;13.70;;
3036;SDS011;1528;52.550;13.408;2023-09-18T06:07:50;14.70;;;13.80;;
3036;SDS011;1528;52.550;13.408;2023-09-18T06:10:37;14.33;;;13.33;;
3036;SDS011;1528;52.550;13.408;2023-09-18T06:13:23;13.77;;;12.97;;
3036;SDS011;1528;52.550;13.408;2023-09-18T06:16:10;14.17;;;12.90;;
3036;SDS011;1528;52.550;13.408;2023-09-18T06:18:56;14.50;;;13.50;;
3036;SDS011;1528;52.550;13.408;2023-09-18T06:21:45;13.00;;;12.20;;
3036;SDS011;1528;52.550;13.408;2023-09-18T06:24:37;14.00;;;12.80;;
3036;SDS011;1528;52.550;13.408;2023-09-18T06:27:23;14.17;;;13.23;;
3036;SDS011;1528;52.550;13.408;2023-09-18T06:30:09;14.63;;;13.83;;
3036;SDS011;1528;52.550;13.408;2023-09-18T06:32:55;14.40;;;13.20;;
3036;SDS011;1528;52.550;13.408;2023-09-18T06:35:41;13.73;;;12.80;;
3036;SDS011;1528;52.550;13.408;2023-09-18T06:38:28;14.77;;;13.50;;
3036;SDS011;1528;52.550;13.408;2023-09-18T06:41:13;13.67;;;12.80;;
3036;SDS011;1528;52.550;13.408;2023-09-18T06:43:59;14.37;;;13.47;;
3036;SDS011;1528;52.550;13.408;2023-09-18T06:46:46;14.10;;;12.90;;
3036;SDS011;1528;52.550;13.408;2023-09-18T06:49:32;14.00;;;13.20;;
3036;SDS011;1528;52.550;13.408;2023-09-18T06:52:18;12.80;;;12.00;;
3036;SDS011;1528;52.550;13.408;2023-09-18T06:55:05;11.80;;;11.10;;
3036;SDS011;1528;52.550;13.408;2023-09-18T06:57:51;13.80;;;12.50;;
3036;SDS011;1528;52.550;13.408;2023-09-18T07:00:36;13.03;;;12.23;;
3036;SDS011;1528;52.550;13.408;2023-09-18T07:03:22;12.83;;;12.10;;
3036;SDS011;1528;52.550;13.408;2023-09-18T07:06:09;13.33;;;12.53;;
3036;SDS011;1528;52.550;13.408;2023-09-18T07:08:54;14.47;;;13.03;;
3036;SDS011;1528;52.550;13.408;2023-09-18T07:11:41;13.17;;;12.27;;
3036;SDS011;1528;52.550;13.408;2023-09-18T07:14:27;12.10;;;11.40;;
3036;SDS011;1528;52.550;13.408;2023-09-18T07:17:13;15.20;;;14.10;;
3036;SDS011;1528;52.550;13.408;2023-09-18T07:19:59;13.57;;;12.63;;
3036;SDS011;1528;52.550;13.408;2023-09-18T07:22:45;13.93;;;13.03;;
3036;SDS011;1528;52.550;13.408;2023-09-18T07:25:31;12.80;;;12.10;;
3036;SDS011;1528;52.550;13.408;2023-09-18T07:28:18;13.80;;;12.47;;
3036;SDS011;1528;52.550;13.408;2023-09-18T07:31:05;13.67;;;12.50;;
3036;SDS011;1528;52.550;13.408;2023-09-18T07:33:50;12.57;;;11.57;;
3036;SDS011;1528;52.550;13.408;2023-09-18T07:36:36;12.57;;;11.70;;
3036;SDS011;1528;52.550;13.408;2023-09-18T07:39:22;12.20;;;11.30;;
3036;SDS011;1528;52.550;13.408;2023-09-18T07:42:08;11.20;;;10.60;;
3036;SDS011;1528;52.550;13.408;2023-09-18T07:44:55;12.33;;;11.53;;
3036;SDS011;1528;52.550;13.408;2023-09-18T07:47:41;11.70;;;10.97;;
3036;SDS011;1528;52.550;13.408;2023-09-18T07:50:26;12.17;;;11.47;;
3036;SDS011;1528;52.550;13.408;2023-09-18T07:53:12;13.40;;;12.50;;
3036;SDS011;1528;52.550;13.408;2023-09-18T07:55:58;12.63;;;11.73;;
3036;SDS011;1528;52.550;13.408;2023-09-18T07:58:45;13.07;;;12.03;;
3036;SDS011;1528;52.550;13.408;2023-09-18T08:01:32;11.20;;;10.30;;
3036;SDS011;1528;52.550;13.408;2023-09-18T08:04:18;12.30;;;11.40;;
3036;SDS011;1528;52.550;13.408;2023-09-18T08:07:04;11.97;;;11.27;;
3036;SDS011;1528;52.550;13.408;2023-09-18T08:09:50;12.10;;;11.40;;
3036;SDS011;1528;52.550;13.408;2023-09-18T08:12:36;11.67;;;10.90;;
3036;SDS011;1528;52.550;13.408;2023-09-18T08:15:21;11.67;;;10.83;;
3036;SDS011;1528;52.550;13.408;2023-09-18T08:18:08;12.00;;;11.30;;
3036;SDS011;1528;52.550;13.408;2023-09-18T08:20:54;11.60;;;10.80;;
3036;SDS011;1528;52.550;13.408;2023-09-18T08:23:41;11.20;;;10.50;;
3036;SDS011;1528;52.550;13.408;2023-09-18T08:26:26;11.10;;;10.30;;
3036;SDS011;1528;52.550;13.408;2023-09-18T08:29:12;10.33;;;9.57;;
3036;SDS011;1528;52.550;13.408;2023-09-18T08:31:58;10.77;;;10.17;;
3036;SDS011;1528;52.550;13.408;2023-09-18T08:34:45;11.60;;;10.90;;
3036;SDS011;1528;52.550;13.408;2023-09-18T08:37:31;11.13;;;10.43;;
3036;SDS011;1528;52.550;13.408;2023-09-18T08:40:17;11.33;;;10.53;;
3036;SDS011;1528;52.550;13.408;2023-09-18T08:43:02;12.40;;;11.50;;
3036;SDS011;1528;52.550;13.408;2023-09-18T08:45:50;11.23;;;10.53;;
3036;SDS011;1528;52.550;13.408;2023-09-18T08:48:37;10.50;;;9.70;;
3036;SDS011;1528;52.550;13.408;2023-09-18T08:51:25;13.67;;;13.00;;
3036;SDS011;1528;52.550;13.408;2023-09-18T08:54:12;10.67;;;10.00;;
3036;SDS011;1528;52.550;13.408;2023-09-18T08:56:58;10.07;;;9.40;;
3036;SDS011;1528;52.550;13.408;2023-09-18T08:59:44;11.13;;;10.43;;
3036;SDS011;1528;52.550;13.408;2023-09-18T09:02:31;10.60;;;9.83;;
3036;SDS011;1528;52.550;13.408;2023-09-18T09:05:16;11.93;;;11.10;;
3036;SDS011;1528;52.550;13.408;2023-09-18T09:08:03;10.27;;;9.23;;
3036;SDS011;1528;52.550;13.408;2023-09-18T09:10:49;11.40;;;10.60;;
3036;SDS011;1528;52.550;13.408;2023-09-18T09:13:35;10.83;;;10.23;;
3036;SDS011;1528;52.550;13.408;2023-09-18T09:16:20;9.90;;;9.13;;
3036;SDS011;1528;52.550;13.408;2023-09-18T09:19:06;10.63;;;9.83;;
3036;SDS011;1528;52.550;13.408;2023-09-18T09:21:52;10.70;;;9.83;;
3036;SDS011;1528;52.550;13.408;2023-09-18T09:24:40;9.53;;;9.03;;
3036;SDS011;1528;52.550;13.408;2023-09-18T09:27:27;10.10;;;9.50;;
3036;SDS011;1528;52.550;13.408;2023-09-18T09:30:15;10.73;;;10.13;;
3036;SDS011;1528;52.550;13.408;2023-09-18T09:33:05;10.77;;;10.10;;
3036;SDS011;1528;52.550;13.408;2023-09-18T09:35:51;9.90;;;9.30;;
3036;SDS011;1528;52.550;13.408;2023-09-18T09:38:37;10.07;;;9.40;;
3036;SDS011;1528;52.550;13.408;2023-09-18T09:41:24;10.30;;;9.50;;
3036;SDS011;1528;52.550;13.408;2023-09-18T09:44:11;14.47;;;13.67;;
3036;SDS011;1528;52.550;13.408;2023-09-18T09:46:59;10.00;;;9.27;;
3036;SDS011;1528;52.550;13.408;2023-09-18T09:49:45;8.20;;;7.70;;
3036;SDS011;1528;52.550;13.408;2023-09-18T09:52:32;9.67;;;8.87;;
3036;SDS011;1528;52.550;13.408;2023-09-18T09:55:18;9.30;;;8.73;;
3036;SDS011;1528;52.550;13.408;2023-09-18T09:58:07;9.90;;;9.30;;
3036;SDS011;1528;52.550;13.408;2023-09-18T10:00:54;10.13;;;9.50;;
3036;SDS011;1528;52.550;13.408;2023-09-18T10:03:43;9.70;;;9.07;;
3036;SDS011;1528;52.550;13.408;2023-09-18T10:06:30;9.30;;;8.80;;
3036;SDS011;1528;52.550;13.408;2023-09-18T10:09:19;10.90;;;10.30;;
3036;SDS011;1528;52.550;13.408;2023-09-18T10:12:06;9.73;;;9.03;;
3036;SDS011;1528;52.550;13.408;2023-09-18T10:14:57;9.60;;;8.93;;
3036;SDS011;1528;52.550;13.408;2023-09-18T10:17:43;10.13;;;9.47;;
3036;SDS011;1528;52.550;13.408;2023-09-18T10:20:32;8.43;;;7.97;;
3036;SDS011;1528;52.550;13.408;2023-09-18T10:23:24;9.30;;;8.50;;
3036;SDS011;1528;52.550;13.408;2023-09-18T10:26:19;9.30;;;8.50;;
3036;SDS011;1528;52.550;13.408;2023-09-18T10:29:09;9.00;;;8.40;;
3036;SDS011;1528;52.550;13.408;2023-09-18T10:31:59;9.50;;;8.80;;
3036;SDS011;1528;52.550;13.408;2023-09-18T10:34:47;10.07;;;9.37;;
3036;SDS011;1528;52.550;13.408;2023-09-18T10:37:33;9.80;;;9.10;;
3036;SDS011;1528;52.550;13.408;2023-09-18T10:40:21;10.00;;;9.37;;
3036;SDS011;1528;52.550;13.408;2023-09-18T10:43:06;9.47;;;8.90;;
3036;SDS011;1528;52.550;13.408;2023-09-18T10:45:54;9.60;;;8.90;;
3036;SDS011;1528;52.550;13.408;2023-09-18T10:48:41;8.83;;;8.23;;
3036;SDS011;1528;52.550;13.408;2023-09-18T10:51:28;11.93;;;11.13;;
3036;SDS011;1528;52.550;13.408;2023-09-18T10:54:15;9.90;;;9.30;;
3036;SDS011;1528;52.550;13.408;2023-09-18T10:57:01;10.43;;;9.63;;
3036;SDS011;1528;52.550;13.408;2023-09-18T10:59:47;11.33;;;10.60;;
3036;SDS011;1528;52.550;13.408;2023-09-18T11:02:33;10.07;;;9.23;;
3036;SDS011;1528;52.550;13.408;2023-09-18T11:05:28;9.97;;;8.93;;
3036;SDS011;1528;52.550;13.408;2023-09-18T11:08:24;11.07;;;10.20;;
3036;SDS011;1528;52.550;13.408;2023-09-18T11:11:11;10.00;;;9.43;;
3036;SDS011;1528;52.550;13.408;2023-09-18T11:13:58;10.60;;;9.90;;
3036;SDS011;1528;52.550;13.408;2023-09-18T11:16:45;12.27;;;11.37;;
3036;SDS011;1528;52.550;13.408;2023-09-18T11:19:34;11.27;;;10.57;;
3036;SDS011;1528;52.550;13.408;2023-09-18T11:22:28;11.90;;;11.03;;
3036;SDS011;1528;52.550;13.408;2023-09-18T11:25:29;10.53;;;9.93;;
3036;SDS011;1528;52.550;13.408;2023-09-18T11:28:25;12.10;;;8.87;;
3036;SDS011;1528;52.550;13.408;2023-09-18T11:31:14;10.50;;;9.70;;
3036;SDS011;1528;52.550;13.408;2023-09-18T11:34:03;11.63;;;10.70;;
3036;SDS011;1528;52.550;13.408;2023-09-18T11:36:57;9.50;;;8.60;;
3036;SDS011;1528;52.550;13.408;2023-09-18T11:39:44;9.83;;;9.13;;
3036;SDS011;1528;52.550;13.408;2023-09-18T11:42:31;10.13;;;9.33;;
3036;SDS011;1528;52.550;13.408;2023-09-18T11:45:17;9.90;;;9.00;;
3036;SDS011;1528;52.550;13.408;2023-09-18T11:48:02;11.57;;;10.43;;
3036;SDS011;1528;52.550;13.408;2023-09-18T11:50:51;12.23;;;11.47;;
3036;SDS011;1528;52.550;13.408;2023-09-18T11:53:38;10.27;;;9.67;;
3036;SDS011;1528;52.550;13.408;2023-09-18T11:56:27;9.90;;;9.37;;
3036;SDS011;1528;52.550;13.408;2023-09-18T11:59:12;10.80;;;10.00;;
3036;SDS011;1528;52.550;13.408;2023-09-18T12:01:58;11.30;;;10.60;;
3036;SDS011;1528;52.550;13.408;2023-09-18T12:04:49;9.30;;;8.70;;
3036;SDS011;1528;52.550;13.408;2023-09-18T12:07:35;12.97;;;11.77;;
3036;SDS011;1528;52.550;13.408;2023-09-18T12:10:20;10.87;;;9.97;;
3036;SDS011;1528;52.550;13.408;2023-09-18T12:13:07;11.23;;;10.43;;
3036;SDS011;1528;52.550;13.408;2023-09-18T12:15:56;10.10;;;9.30;;
3036;SDS011;1528;52.550;13.408;2023-09-18T12:18:45;12.03;;;11.20;;
3036;SDS011;1528;52.550;13.408;2023-09-18T12:21:32;10.83;;;10.13;;
3036;SDS011;1528;52.550;13.408;2023-09-18T12:24:20;10.13;;;9.53;;
3036;SDS011;1528;52.550;13.408;2023-09-18T12:27:06;12.33;;;11.53;;
3036;SDS011;1528;52.550;13.408;2023-09-18T12:29:54;9.70;;;9.10;;
3036;SDS011;1528;52.550;13.408;2023-09-18T12:32:40;10.57;;;9.57;;
3036;SDS011;1528;52.550;13.408;2023-09-18T12:35:25;10.07;;;9.47;;
3036;SDS011;1528;52.550;13.408;2023-09-18T12:38:13;9.50;;;8.90;;
3036;SDS011;1528;52.550;13.408;2023-09-18T12:41:00;10.27;;;9.67;;
3036;SDS011;1528;52.550;13.408;2023-09-18T12:43:50;10.03;;;9.10;;
3036;SDS011;1528;52.550;13.408;2023-09-18T12:46:38;8.70;;;8.20;;
3036;SDS011;1528;52.550;13.408;2023-09-18T12:49:26;9.57;;;8.77;;
3036;SDS011;1528;52.550;13.408;2023-09-18T12:52:21;8.83;;;8.13;;
3036;SDS011;1528;52.550;13.408;2023-09-18T12:55:07;8.80;;;8.20;;
3036;SDS011;1528;52.550;13.408;2023-09-18T12:57:53;9.63;;;8.93;;
3036;SDS011;1528;52.550;13.408;2023-09-18T13:00:44;10.17;;;9.50;;
3036;SDS011;1528;52.550;13.408;2023-09-18T13:03:32;9.53;;;8.90;;
3036;SDS011;1528;52.550;13.408;2023-09-18T13:06:18;9.47;;;8.67;;
3036;SDS011;1528;52.550;13.408;2023-09-18T13:09:16;10.40;;;9.50;;
3036;SDS011;1528;52.550;13.408;2023-09-18T13:12:03;9.97;;;9.10;;
3036;SDS011;1528;52.550;13.408;2023-09-18T13:14:59;9.80;;;9.10;;
3036;SDS011;1528;52.550;13.408;2023-09-18T13:17:48;9.53;;;8.87;;
3036;SDS011;1528;52.550;13.408;2023-09-18T13:20:35;9.73;;;8.83;;
3036;SDS011;1528;52.550;13.408;2023-09-18T13:23:27;11.10;;;10.37;;
3036;SDS011;1528;52.550;13.408;2023-09-18T13:26:12;10.07;;;9.20;;
3036;SDS011;1528;52.550;13.408;2023-09-18T13:28:58;9.90;;;9.10;;
3036;SDS011;1528;52.550;13.408;2023-09-18T13:31:44;9.73;;;8.90;;
3036;SDS011;1528;52.550;13.408;2023-09-18T13:34:29;9.67;;;8.80;;
3036;SDS011;1528;52.550;13.408;2023-09-18T13:37:16;10.70;;;9.77;;
3036;SDS011;1528;52.550;13.408;2023-09-18T13:40:04;8.70;;;7.97;;
3036;SDS011;1528;52.550;13.408;2023-09-18T13:42:53;9.67;;;8.80;;
3036;SDS011;1528;52.550;13.408;2023-09-18T13:45:38;10.13;;;9.53;;
3036;SDS011;1528;52.550;13.408;2023-09-18T13:48:24;9.20;;;8.30;;
3036;SDS011;1528;52.550;13.408;2023-09-18T13:51:09;9.80;;;8.97;;
3036;SDS011;1528;52.550;13.408;2023-09-18T13:53:56;9.13;;;8.23;;
3036;SDS011;1528;52.550;13.408;2023-09-18T13:56:42;10.47;;;9.77;;
3036;SDS011;1528;52.550;13.408;2023-09-18T13:59:27;9.97;;;9.17;;
3036;SDS011;1528;52.550;13.408;2023-09-18T14:02:13;10.53;;;9.73;;
3036;SDS011;1528;52.550;13.408;2023-09-18T14:04:59;10.10;;;9.10;;
3036;SDS011;1528;52.550;13.408;2023-09-18T14:07:45;13.07;;;11.87;;
3036;SDS011;1528;52.550;13.408;2023-09-18T14:10:32;11.97;;;11.10;;
3036;SDS011;1528;52.550;13.408;2023-09-18T14:13:18;10.97;;;9.97;;
3036;SDS011;1528;52.550;13.408;2023-09-18T14:16:04;11.33;;;10.23;;
3036;SDS011;1528;52.550;13.408;2023-09-18T14:18:49;11.00;;;10.00;;
3036;SDS011;1528;52.550;13.408;2023-09-18T14:21:37;10.40;;;9.70;;
3036;SDS011;1528;52.550;13.408;2023-09-18T14:24:24;10.40;;;9.70;;
3036;SDS011;1528;52.550;13.408;2023-09-18T14:27:11;9.93;;;9.10;;
3036;SDS011;1528;52.550;13.408;2023-09-18T14:29:57;10.13;;;9.13;;
3036;SDS011;1528;52.550;13.408;2023-09-18T14:32:44;9.90;;;8.97;;
3036;SDS011;1528;52.550;13.408;2023-09-18T14:35:30;10.47;;;9.40;;
3036;SDS011;1528;52.550;13.408;2023-09-18T14:38:16;9.70;;;9.10;;
3036;SDS011;1528;52.550;13.408;2023-09-18T14:41:02;10.10;;;8.73;;
3036;SDS011;1528;52.550;13.408;2023-09-18T14:43:49;9.53;;;8.73;;
3036;SDS011;1528;52.550;13.408;2023-09-18T14:46:35;10.20;;;9.33;;
3036;SDS011;1528;52.550;13.408;2023-09-18T14:49:21;10.17;;;9.57;;
3036;SDS011;1528;52.550;13.408;2023-09-18T14:52:07;10.17;;;9.27;;
3036;SDS011;1528;52.550;13.408;2023-09-18T14:54:53;8.93;;;8.07;;
3036;SDS011;1528;52.550;13.408;2023-09-18T14:57:38;9.60;;;8.80;;
3036;SDS011;1528;52.550;13.408;2023-09-18T15:00:25;9.43;;;8.77;;
3036;SDS011;1528;52.550;13.408;2023-09-18T15:03:10;9.03;;;8.33;;
3036;SDS011;1528;52.550;13.408;2023-09-18T15:05:56;8.37;;;7.63;;
3036;SDS011;1528;52.550;13.408;2023-09-18T15:08:41;9.37;;;8.67;;
3036;SDS011;1528;52.550;13.408;2023-09-18T15:11:27;8.60;;;7.90;;
3036;SDS011;1528;52.550;13.408;2023-09-18T15:14:12;8.40;;;7.77;;
3036;SDS011;1528;52.550;13.408;2023-09-18T15:17:00;10.00;;;9.30;;
3036;SDS011;1528;52.550;13.408;2023-09-18T15:19:45;8.20;;;6.93;;
3036;SDS011;1528;52.550;13.408;2023-09-18T15:22:36;11.43;;;10.53;;
3036;SDS011;1528;52.550;13.408;2023-09-18T15:25:21;8.30;;;7.60;;
3036;SDS011;1528;52.550;13.408;2023-09-18T15:28:07;9.90;;;8.37;;
3036;SDS011;1528;52.550;13.408;2023-09-18T15:30:53;8.77;;;8.03;;
3036;SDS011;1528;52.550;13.408;2023-09-18T15:33:40;10.50;;;9.70;;
3036;SDS011;1528;52.550;13.408;2023-09-18T15:36:26;10.87;;;10.07;;
3036;SDS011;1528;52.550;13.408;2023-09-18T15:39:11;9.93;;;9.33;;
3036;SDS011;1528;52.550;13.408;2023-09-18T15:41:57;7.47;;;6.87;;
3036;SDS011;1528;52.550;13.408;2023-09-18T15:44:42;9.87;;;9.10;;
3036;SDS011;1528;52.550;13.408;2023-09-18T15:47:28;7.70;;;7.20;;
3036;SDS011;1528;52.550;13.408;2023-09-18T15:50:15;11.70;;;8.23;;
3036;SDS011;1528;52.550;13.408;2023-09-18T15:53:00;9.10;;;8.17;;
3036;SDS011;1528;52.550;13.408;2023-09-18T15:55:46;9.70;;;8.73;;
3036;SDS011;1528;52.550;13.408;2023-09-18T15:58:31;8.83;;;8.10;;
3036;SDS011;1528;52.550;13.408;2023-09-18T16:01:18;8.77;;;8.13;;
3036;SDS011;1528;52.550;13.408;2023-09-18T16:04:04;8.33;;;7.63;;
3036;SDS011;1528;52.550;13.408;2023-09-18T16:06:52;10.60;;;9.80;;
3036;SDS011;1528;52.550;13.408;2023-09-18T16:09:37;10.30;;;9.30;;
3036;SDS011;1528;52.550;13.408;2023-09-18T16:12:23;11.27;;;10.07;;
3036;SDS011;1528;52.550;13.408;2023-09-18T16:15:09;8.77;;;8.07;;
3036;SDS011;1528;52.550;13.408;2023-09-18T16:17:54;9.27;;;8.67;;
3036;SDS011;1528;52.550;13.408;2023-09-18T16:20:40;8.10;;;7.60;;
3036;SDS011;1528;52.550;13.408;2023-09-18T16:23:27;8.63;;;7.93;;
3036;SDS011;1528;52.550;13.408;2023-09-18T16:26:13;9.23;;;8.63;;
3036;SDS011;1528;52.550;13.408;2023-09-18T16:28:58;9.27;;;8.63;;
3036;SDS011;1528;52.550;13.408;2023-09-18T16:31:44;9.17;;;8.47;;
3036;SDS011;1528;52.550;13.408;2023-09-18T16:34:30;8.83;;;8.03;;
3036;SDS011;1528;52.550;13.408;2023-09-18T16:37:15;9.70;;;8.80;;
3036;SDS011;1528;52.550;13.408;2023-09-18T16:40:02;11.90;;;8.53;;
3036;SDS011;1528;52.550;13.408;2023-09-18T16:42:49;9.97;;;9.20;;